sensor_id;sensor_type;location;lat;lon;timestamp;P1;durP1;ratioP1;P2;durP2;ratioP2
20080;SDS011;10200;49.232;9.222;2022-12-11T00:00:00;25.43;;;14.97;;
20080;SDS011;10200;49.232;9.222;2022-12-11T00:02:27;28.77;;;15.00;;
20080;SDS011;10200;49.232;9.222;2022-12-11T00:04:53;27.20;;;15.90;;
20080;SDS011;10200;49.232;9.222;2022-12-11T00:07:18;29.33;;;15.50;;
20080;SDS011;10200;49.232;9.222;2022-12-11T00:09:44;26.17;;;15.30;;
20080;SDS011;10200;49.232;9.222;2022-12-11T00:12:10;27.03;;;14.90;;
20080;SDS011;10200;49.232;9.222;2022-12-11T00:14:35;22.97;;;13.73;;
20080;SDS011;10200;49.232;9.222;2022-12-11T00:17:01;26.10;;;15.33;;
20080;SDS011;10200;49.232;9.222;2022-12-11T00:19:26;25.10;;;15.80;;
20080;SDS011;10200;49.232;9.222;2022-12-11T00:21:52;24.73;;;14.17;;
20080;SDS011;10200;49.232;9.222;2022-12-11T00:24:17;21.10;;;13.47;;
20080;SDS011;10200;49.232;9.222;2022-12-11T00:26:43;25.80;;;15.43;;
20080;SDS011;10200;49.232;9.222;2022-12-11T00:29:09;26.53;;;14.70;;
20080;SDS011;10200;49.232;9.222;2022-12-11T00:31:38;24.60;;;14.57;;
20080;SDS011;10200;49.232;9.222;2022-12-11T00:34:07;26.43;;;15.00;;
20080;SDS011;10200;49.232;9.222;2022-12-11T00:36:33;30.67;;;15.03;;
20080;SDS011;10200;49.232;9.222;2022-12-11T00:38:59;24.20;;;14.40;;
20080;SDS011;10200;49.232;9.222;2022-12-11T00:41:25;23.80;;;14.77;;
20080;SDS011;10200;49.232;9.222;2022-12-11T00:43:51;27.30;;;15.67;;
20080;SDS011;10200;49.232;9.222;2022-12-11T00:46:16;28.37;;;15.50;;
20080;SDS011;10200;49.232;9.222;2022-12-11T00:48:42;27.50;;;15.63;;
20080;SDS011;10200;49.232;9.222;2022-12-11T00:51:08;23.60;;;13.93;;
20080;SDS011;10200;49.232;9.222;2022-12-11T00:53:34;22.47;;;13.70;;
20080;SDS011;10200;49.232;9.222;2022-12-11T00:56:01;25.37;;;15.20;;
20080;SDS011;10200;49.232;9.222;2022-12-11T00:58:32;28.90;;;15.13;;
20080;SDS011;10200;49.232;9.222;2022-12-11T01:01:03;26.87;;;15.10;;
20080;SDS011;10200;49.232;9.222;2022-12-11T01:03:34;27.70;;;14.73;;
20080;SDS011;10200;49.232;9.222;2022-12-11T01:06:00;27.30;;;14.80;;
20080;SDS011;10200;49.232;9.222;2022-12-11T01:08:25;27.00;;;14.67;;
20080;SDS011;10200;49.232;9.222;2022-12-11T01:10:51;22.93;;;14.23;;
20080;SDS011;10200;49.232;9.222;2022-12-11T01:13:26;22.83;;;14.13;;
20080;SDS011;10200;49.232;9.222;2022-12-11T01:15:51;32.67;;;15.40;;
20080;SDS011;10200;49.232;9.222;2022-12-11T01:18:17;28.80;;;15.50;;
20080;SDS011;10200;49.232;9.222;2022-12-11T01:20:42;27.27;;;14.63;;
20080;SDS011;10200;49.232;9.222;2022-12-11T01:23:09;26.40;;;14.97;;
20080;SDS011;10200;49.232;9.222;2022-12-11T01:25:37;22.83;;;13.60;;
20080;SDS011;10200;49.232;9.222;2022-12-11T01:28:02;27.40;;;15.00;;
20080;SDS011;10200;49.232;9.222;2022-12-11T01:30:29;26.33;;;12.53;;
20080;SDS011;10200;49.232;9.222;2022-12-11T01:32:54;22.67;;;13.37;;
20080;SDS011;10200;49.232;9.222;2022-12-11T01:35:20;22.23;;;13.37;;
20080;SDS011;10200;49.232;9.222;2022-12-11T01:37:46;22.67;;;12.40;;
20080;SDS011;10200;49.232;9.222;2022-12-11T01:40:13;18.70;;;11.87;;
20080;SDS011;10200;49.232;9.222;2022-12-11T01:42:40;23.30;;;12.17;;
20080;SDS011;10200;49.232;9.222;2022-12-11T01:48:10;18.07;;;11.03;;
20080;SDS011;10200;49.232;9.222;2022-12-11T01:50:49;20.30;;;10.70;;
20080;SDS011;10200;49.232;9.222;2022-12-11T01:53:27;18.03;;;10.83;;
20080;SDS011;10200;49.232;9.222;2022-12-11T01:56:02;18.57;;;11.47;;
20080;SDS011;10200;49.232;9.222;2022-12-11T01:58:34;19.27;;;11.57;;
20080;SDS011;10200;49.232;9.222;2022-12-11T02:01:06;15.17;;;10.37;;
20080;SDS011;10200;49.232;9.222;2022-12-11T02:03:35;20.13;;;11.47;;
20080;SDS011;10200;49.232;9.222;2022-12-11T02:06:01;17.83;;;10.80;;
20080;SDS011;10200;49.232;9.222;2022-12-11T02:08:27;17.23;;;10.40;;
20080;SDS011;10200;49.232;9.222;2022-12-11T02:10:57;17.43;;;11.23;;
20080;SDS011;10200;49.232;9.222;2022-12-11T02:13:39;17.30;;;10.70;;
20080;SDS011;10200;49.232;9.222;2022-12-11T02:19:01;22.70;;;12.27;;
20080;SDS011;10200;49.232;9.222;2022-12-11T02:21:40;19.17;;;10.90;;
20080;SDS011;10200;49.232;9.222;2022-12-11T02:35:46;25.80;;;13.23;;
20080;SDS011;10200;49.232;9.222;2022-12-11T02:37:57;20.43;;;12.43;;
20080;SDS011;10200;49.232;9.222;2022-12-11T02:40:27;22.10;;;13.50;;
20080;SDS011;10200;49.232;9.222;2022-12-11T02:42:57;22.67;;;12.10;;
20080;SDS011;10200;49.232;9.222;2022-12-11T02:45:25;24.33;;;14.00;;
20080;SDS011;10200;49.232;9.222;2022-12-11T02:47:52;22.00;;;12.87;;
20080;SDS011;10200;49.232;9.222;2022-12-11T02:50:20;23.10;;;14.47;;
20080;SDS011;10200;49.232;9.222;2022-12-11T02:52:47;22.03;;;13.17;;
20080;SDS011;10200;49.232;9.222;2022-12-11T02:55:15;22.97;;;13.37;;
20080;SDS011;10200;49.232;9.222;2022-12-11T02:57:52;22.37;;;12.97;;
20080;SDS011;10200;49.232;9.222;2022-12-11T03:00:20;24.33;;;14.10;;
20080;SDS011;10200;49.232;9.222;2022-12-11T03:02:46;21.83;;;13.80;;
20080;SDS011;10200;49.232;9.222;2022-12-11T03:05:12;22.00;;;13.67;;
20080;SDS011;10200;49.232;9.222;2022-12-11T03:07:39;23.07;;;13.43;;
20080;SDS011;10200;49.232;9.222;2022-12-11T03:10:07;24.87;;;13.83;;
20080;SDS011;10200;49.232;9.222;2022-12-11T03:12:35;24.13;;;14.10;;
20080;SDS011;10200;49.232;9.222;2022-12-11T03:15:05;28.87;;;14.73;;
20080;SDS011;10200;49.232;9.222;2022-12-11T03:23:01;24.53;;;14.80;;
20080;SDS011;10200;49.232;9.222;2022-12-11T03:28:23;24.30;;;14.77;;
20080;SDS011;10200;49.232;9.222;2022-12-11T03:31:00;26.87;;;14.77;;
20080;SDS011;10200;49.232;9.222;2022-12-11T03:33:35;26.70;;;15.47;;
20080;SDS011;10200;49.232;9.222;2022-12-11T03:36:04;25.87;;;14.53;;
20080;SDS011;10200;49.232;9.222;2022-12-11T03:38:51;27.87;;;15.07;;
20080;SDS011;10200;49.232;9.222;2022-12-11T03:41:22;21.43;;;13.03;;
20080;SDS011;10200;49.232;9.222;2022-12-11T03:43:51;25.77;;;14.47;;
20080;SDS011;10200;49.232;9.222;2022-12-11T03:46:20;24.70;;;14.73;;
20080;SDS011;10200;49.232;9.222;2022-12-11T03:48:47;27.47;;;16.20;;
20080;SDS011;10200;49.232;9.222;2022-12-11T03:51:14;29.40;;;16.07;;
20080;SDS011;10200;49.232;9.222;2022-12-11T03:53:42;25.93;;;15.20;;
20080;SDS011;10200;49.232;9.222;2022-12-11T03:56:09;29.20;;;14.97;;
20080;SDS011;10200;49.232;9.222;2022-12-11T03:58:37;25.67;;;15.07;;
20080;SDS011;10200;49.232;9.222;2022-12-11T04:01:06;23.97;;;14.07;;
20080;SDS011;10200;49.232;9.222;2022-12-11T04:03:33;28.23;;;15.63;;
20080;SDS011;10200;49.232;9.222;2022-12-11T04:05:58;29.17;;;17.07;;
20080;SDS011;10200;49.232;9.222;2022-12-11T04:08:24;28.03;;;15.77;;
20080;SDS011;10200;49.232;9.222;2022-12-11T04:10:50;25.07;;;14.97;;
20080;SDS011;10200;49.232;9.222;2022-12-11T04:13:36;30.73;;;17.00;;
20080;SDS011;10200;49.232;9.222;2022-12-11T04:16:02;29.07;;;16.60;;
20080;SDS011;10200;49.232;9.222;2022-12-11T04:18:28;25.73;;;15.90;;
20080;SDS011;10200;49.232;9.222;2022-12-11T04:21:12;26.63;;;15.00;;
20080;SDS011;10200;49.232;9.222;2022-12-11T04:23:56;25.73;;;14.53;;
20080;SDS011;10200;49.232;9.222;2022-12-11T04:26:41;26.07;;;15.93;;
20080;SDS011;10200;49.232;9.222;2022-12-11T04:29:07;28.10;;;15.70;;
20080;SDS011;10200;49.232;9.222;2022-12-11T04:31:33;25.43;;;16.30;;
20080;SDS011;10200;49.232;9.222;2022-12-11T04:33:58;25.63;;;14.77;;
20080;SDS011;10200;49.232;9.222;2022-12-11T04:36:24;27.10;;;16.37;;
20080;SDS011;10200;49.232;9.222;2022-12-11T04:38:50;28.87;;;15.40;;
20080;SDS011;10200;49.232;9.222;2022-12-11T04:41:15;29.13;;;15.53;;
20080;SDS011;10200;49.232;9.222;2022-12-11T04:43:41;28.67;;;16.13;;
20080;SDS011;10200;49.232;9.222;2022-12-11T04:46:14;27.43;;;15.37;;
20080;SDS011;10200;49.232;9.222;2022-12-11T04:48:42;24.33;;;14.73;;
20080;SDS011;10200;49.232;9.222;2022-12-11T04:51:08;27.67;;;15.60;;
20080;SDS011;10200;49.232;9.222;2022-12-11T04:53:34;25.73;;;14.60;;
20080;SDS011;10200;49.232;9.222;2022-12-11T04:56:00;27.00;;;15.87;;
20080;SDS011;10200;49.232;9.222;2022-12-11T04:58:29;29.40;;;15.37;;
20080;SDS011;10200;49.232;9.222;2022-12-11T05:00:55;26.43;;;14.77;;
20080;SDS011;10200;49.232;9.222;2022-12-11T05:03:21;27.20;;;15.17;;
20080;SDS011;10200;49.232;9.222;2022-12-11T05:05:50;29.23;;;15.43;;
20080;SDS011;10200;49.232;9.222;2022-12-11T05:08:17;26.70;;;15.00;;
20080;SDS011;10200;49.232;9.222;2022-12-11T05:10:44;23.77;;;14.63;;
20080;SDS011;10200;49.232;9.222;2022-12-11T05:13:09;27.80;;;15.37;;
20080;SDS011;10200;49.232;9.222;2022-12-11T05:15:37;29.17;;;17.47;;
20080;SDS011;10200;49.232;9.222;2022-12-11T05:18:04;25.67;;;15.47;;
20080;SDS011;10200;49.232;9.222;2022-12-11T05:20:29;27.50;;;14.40;;
20080;SDS011;10200;49.232;9.222;2022-12-11T05:22:55;27.20;;;15.17;;
20080;SDS011;10200;49.232;9.222;2022-12-11T05:25:20;27.23;;;15.30;;
20080;SDS011;10200;49.232;9.222;2022-12-11T05:27:46;33.27;;;17.40;;
20080;SDS011;10200;49.232;9.222;2022-12-11T05:30:12;30.63;;;17.07;;
20080;SDS011;10200;49.232;9.222;2022-12-11T05:32:37;33.50;;;18.87;;
20080;SDS011;10200;49.232;9.222;2022-12-11T05:35:03;34.70;;;18.87;;
20080;SDS011;10200;49.232;9.222;2022-12-11T05:37:29;37.47;;;18.43;;
20080;SDS011;10200;49.232;9.222;2022-12-11T05:39:57;30.97;;;16.03;;
20080;SDS011;10200;49.232;9.222;2022-12-11T05:42:22;34.40;;;18.10;;
20080;SDS011;10200;49.232;9.222;2022-12-11T05:44:48;30.07;;;17.27;;
20080;SDS011;10200;49.232;9.222;2022-12-11T05:47:13;32.73;;;19.13;;
20080;SDS011;10200;49.232;9.222;2022-12-11T05:49:39;31.40;;;16.53;;
20080;SDS011;10200;49.232;9.222;2022-12-11T05:52:04;31.07;;;17.60;;
20080;SDS011;10200;49.232;9.222;2022-12-11T05:54:30;34.27;;;18.83;;
20080;SDS011;10200;49.232;9.222;2022-12-11T05:56:56;33.97;;;17.67;;
20080;SDS011;10200;49.232;9.222;2022-12-11T05:59:21;28.07;;;16.60;;
20080;SDS011;10200;49.232;9.222;2022-12-11T06:01:47;37.87;;;18.60;;
20080;SDS011;10200;49.232;9.222;2022-12-11T06:04:12;31.07;;;15.80;;
20080;SDS011;10200;49.232;9.222;2022-12-11T06:06:38;32.50;;;17.83;;
20080;SDS011;10200;49.232;9.222;2022-12-11T06:09:04;35.83;;;18.73;;
20080;SDS011;10200;49.232;9.222;2022-12-11T06:11:31;33.47;;;17.80;;
20080;SDS011;10200;49.232;9.222;2022-12-11T06:13:57;37.20;;;18.53;;
20080;SDS011;10200;49.232;9.222;2022-12-11T06:16:24;33.33;;;18.93;;
20080;SDS011;10200;49.232;9.222;2022-12-11T06:18:50;31.80;;;18.07;;
20080;SDS011;10200;49.232;9.222;2022-12-11T06:23:44;31.30;;;17.80;;
20080;SDS011;10200;49.232;9.222;2022-12-11T06:26:11;32.93;;;17.60;;
20080;SDS011;10200;49.232;9.222;2022-12-11T06:28:37;31.77;;;17.93;;
20080;SDS011;10200;49.232;9.222;2022-12-11T06:31:02;35.60;;;18.00;;
20080;SDS011;10200;49.232;9.222;2022-12-11T06:33:28;30.83;;;17.47;;
20080;SDS011;10200;49.232;9.222;2022-12-11T06:35:54;31.30;;;17.43;;
20080;SDS011;10200;49.232;9.222;2022-12-11T06:38:20;29.37;;;17.10;;
20080;SDS011;10200;49.232;9.222;2022-12-11T06:40:52;29.37;;;16.37;;
20080;SDS011;10200;49.232;9.222;2022-12-11T06:43:22;28.30;;;17.00;;
20080;SDS011;10200;49.232;9.222;2022-12-11T06:45:48;31.30;;;17.47;;
20080;SDS011;10200;49.232;9.222;2022-12-11T06:48:15;36.37;;;18.87;;
20080;SDS011;10200;49.232;9.222;2022-12-11T06:50:41;29.10;;;17.37;;
20080;SDS011;10200;49.232;9.222;2022-12-11T06:53:06;29.37;;;16.87;;
20080;SDS011;10200;49.232;9.222;2022-12-11T06:55:34;32.87;;;18.03;;
20080;SDS011;10200;49.232;9.222;2022-12-11T06:58:00;34.50;;;17.40;;
20080;SDS011;10200;49.232;9.222;2022-12-11T07:00:25;27.77;;;16.13;;
20080;SDS011;10200;49.232;9.222;2022-12-11T07:02:51;31.43;;;17.33;;
20080;SDS011;10200;49.232;9.222;2022-12-11T07:05:16;29.27;;;15.90;;
20080;SDS011;10200;49.232;9.222;2022-12-11T07:07:42;36.37;;;18.20;;
20080;SDS011;10200;49.232;9.222;2022-12-11T07:10:08;30.83;;;17.90;;
20080;SDS011;10200;49.232;9.222;2022-12-11T07:12:34;28.50;;;16.40;;
20080;SDS011;10200;49.232;9.222;2022-12-11T07:15:00;26.33;;;15.43;;
20080;SDS011;10200;49.232;9.222;2022-12-11T07:17:27;30.63;;;17.53;;
20080;SDS011;10200;49.232;9.222;2022-12-11T07:19:53;29.80;;;16.73;;
20080;SDS011;10200;49.232;9.222;2022-12-11T07:22:18;31.60;;;17.83;;
20080;SDS011;10200;49.232;9.222;2022-12-11T07:24:44;38.57;;;18.70;;
20080;SDS011;10200;49.232;9.222;2022-12-11T07:27:10;35.97;;;18.57;;
20080;SDS011;10200;49.232;9.222;2022-12-11T07:29:35;35.57;;;18.47;;
20080;SDS011;10200;49.232;9.222;2022-12-11T07:32:01;31.77;;;17.27;;
20080;SDS011;10200;49.232;9.222;2022-12-11T07:34:27;31.80;;;16.30;;
20080;SDS011;10200;49.232;9.222;2022-12-11T07:36:52;38.07;;;18.47;;
20080;SDS011;10200;49.232;9.222;2022-12-11T07:39:18;31.87;;;17.57;;
20080;SDS011;10200;49.232;9.222;2022-12-11T07:41:43;36.20;;;19.77;;
20080;SDS011;10200;49.232;9.222;2022-12-11T07:44:10;31.20;;;17.10;;
20080;SDS011;10200;49.232;9.222;2022-12-11T07:46:37;31.03;;;16.67;;
20080;SDS011;10200;49.232;9.222;2022-12-11T07:49:03;35.03;;;17.50;;
20080;SDS011;10200;49.232;9.222;2022-12-11T07:51:30;32.77;;;18.07;;
20080;SDS011;10200;49.232;9.222;2022-12-11T07:54:00;38.67;;;17.87;;
20080;SDS011;10200;49.232;9.222;2022-12-11T07:56:28;33.33;;;18.70;;
20080;SDS011;10200;49.232;9.222;2022-12-11T07:58:54;35.93;;;17.37;;
20080;SDS011;10200;49.232;9.222;2022-12-11T08:01:21;34.53;;;17.57;;
20080;SDS011;10200;49.232;9.222;2022-12-11T08:03:48;37.57;;;18.80;;
20080;SDS011;10200;49.232;9.222;2022-12-11T08:06:14;28.03;;;16.27;;
20080;SDS011;10200;49.232;9.222;2022-12-11T08:08:40;33.00;;;17.17;;
20080;SDS011;10200;49.232;9.222;2022-12-11T08:11:08;31.60;;;16.27;;
20080;SDS011;10200;49.232;9.222;2022-12-11T08:13:36;32.40;;;17.93;;
20080;SDS011;10200;49.232;9.222;2022-12-11T08:16:03;33.10;;;17.70;;
20080;SDS011;10200;49.232;9.222;2022-12-11T08:18:29;28.23;;;15.83;;
20080;SDS011;10200;49.232;9.222;2022-12-11T08:20:55;34.00;;;19.43;;
20080;SDS011;10200;49.232;9.222;2022-12-11T08:23:20;26.50;;;14.67;;
20080;SDS011;10200;49.232;9.222;2022-12-11T08:25:46;30.07;;;17.47;;
20080;SDS011;10200;49.232;9.222;2022-12-11T08:28:11;30.93;;;17.00;;
20080;SDS011;10200;49.232;9.222;2022-12-11T08:30:37;31.50;;;17.07;;
20080;SDS011;10200;49.232;9.222;2022-12-11T08:33:04;30.83;;;15.97;;
20080;SDS011;10200;49.232;9.222;2022-12-11T08:35:30;32.20;;;16.60;;
20080;SDS011;10200;49.232;9.222;2022-12-11T08:37:56;33.97;;;18.03;;
20080;SDS011;10200;49.232;9.222;2022-12-11T08:40:22;32.57;;;16.50;;
20080;SDS011;10200;49.232;9.222;2022-12-11T08:42:47;35.23;;;17.70;;
20080;SDS011;10200;49.232;9.222;2022-12-11T08:45:13;33.97;;;18.10;;
20080;SDS011;10200;49.232;9.222;2022-12-11T08:47:38;37.20;;;17.77;;
20080;SDS011;10200;49.232;9.222;2022-12-11T08:50:04;32.80;;;17.57;;
20080;SDS011;10200;49.232;9.222;2022-12-11T08:52:30;31.93;;;16.20;;
20080;SDS011;10200;49.232;9.222;2022-12-11T08:54:57;30.47;;;18.37;;
20080;SDS011;10200;49.232;9.222;2022-12-11T08:57:23;35.53;;;18.27;;
20080;SDS011;10200;49.232;9.222;2022-12-11T08:59:48;34.23;;;17.80;;
20080;SDS011;10200;49.232;9.222;2022-12-11T09:02:14;32.20;;;18.43;;
20080;SDS011;10200;49.232;9.222;2022-12-11T09:04:40;32.17;;;17.80;;
20080;SDS011;10200;49.232;9.222;2022-12-11T09:07:05;34.20;;;18.10;;
20080;SDS011;10200;49.232;9.222;2022-12-11T09:09:31;44.40;;;20.67;;
20080;SDS011;10200;49.232;9.222;2022-12-11T09:11:57;35.43;;;18.60;;
20080;SDS011;10200;49.232;9.222;2022-12-11T09:14:23;33.37;;;18.23;;
20080;SDS011;10200;49.232;9.222;2022-12-11T09:16:48;36.57;;;19.13;;
20080;SDS011;10200;49.232;9.222;2022-12-11T09:19:14;29.67;;;16.37;;
20080;SDS011;10200;49.232;9.222;2022-12-11T09:21:40;33.60;;;17.10;;
20080;SDS011;10200;49.232;9.222;2022-12-11T09:24:07;28.33;;;16.10;;
20080;SDS011;10200;49.232;9.222;2022-12-11T09:26:34;34.07;;;15.47;;
20080;SDS011;10200;49.232;9.222;2022-12-11T09:29:01;30.87;;;16.73;;
20080;SDS011;10200;49.232;9.222;2022-12-11T09:31:29;37.90;;;17.70;;
20080;SDS011;10200;49.232;9.222;2022-12-11T09:33:58;30.57;;;17.03;;
20080;SDS011;10200;49.232;9.222;2022-12-11T09:36:28;31.13;;;17.03;;
20080;SDS011;10200;49.232;9.222;2022-12-11T09:38:54;30.87;;;17.37;;
20080;SDS011;10200;49.232;9.222;2022-12-11T09:46:55;29.67;;;15.83;;
20080;SDS011;10200;49.232;9.222;2022-12-11T09:52:33;29.07;;;15.30;;
20080;SDS011;10200;49.232;9.222;2022-12-11T09:54:47;30.17;;;15.50;;
20080;SDS011;10200;49.232;9.222;2022-12-11T10:07:54;30.37;;;14.97;;
20080;SDS011;10200;49.232;9.222;2022-12-11T10:16:12;33.53;;;15.53;;
20080;SDS011;10200;49.232;9.222;2022-12-11T10:18:56;29.47;;;16.20;;
20080;SDS011;10200;49.232;9.222;2022-12-11T10:21:23;30.83;;;14.80;;
20080;SDS011;10200;49.232;9.222;2022-12-11T10:23:55;28.47;;;13.53;;
20080;SDS011;10200;49.232;9.222;2022-12-11T10:26:26;25.10;;;14.43;;
20080;SDS011;10200;49.232;9.222;2022-12-11T10:28:53;31.67;;;16.27;;
20080;SDS011;10200;49.232;9.222;2022-12-11T10:34:07;26.23;;;15.57;;
20080;SDS011;10200;49.232;9.222;2022-12-11T10:36:54;30.33;;;15.43;;
20080;SDS011;10200;49.232;9.222;2022-12-11T10:39:20;29.93;;;15.70;;
20080;SDS011;10200;49.232;9.222;2022-12-11T10:41:48;31.10;;;16.70;;
20080;SDS011;10200;49.232;9.222;2022-12-11T10:44:19;26.93;;;14.60;;
20080;SDS011;10200;49.232;9.222;2022-12-11T10:49:55;28.90;;;14.70;;
20080;SDS011;10200;49.232;9.222;2022-12-11T10:52:26;29.40;;;14.50;;
20080;SDS011;10200;49.232;9.222;2022-12-11T10:55:06;25.80;;;13.77;;
20080;SDS011;10200;49.232;9.222;2022-12-11T10:58:00;27.30;;;13.47;;
20080;SDS011;10200;49.232;9.222;2022-12-11T11:00:30;27.00;;;14.17;;
20080;SDS011;10200;49.232;9.222;2022-12-11T11:02:59;30.93;;;15.50;;
20080;SDS011;10200;49.232;9.222;2022-12-11T11:05:30;27.43;;;14.43;;
20080;SDS011;10200;49.232;9.222;2022-12-11T11:08:12;27.80;;;14.63;;
20080;SDS011;10200;49.232;9.222;2022-12-11T11:10:49;25.07;;;13.57;;
20080;SDS011;10200;49.232;9.222;2022-12-11T11:13:16;24.87;;;13.27;;
20080;SDS011;10200;49.232;9.222;2022-12-11T11:15:41;30.47;;;14.80;;
20080;SDS011;10200;49.232;9.222;2022-12-11T11:18:11;32.00;;;15.20;;
20080;SDS011;10200;49.232;9.222;2022-12-11T11:20:51;26.87;;;14.03;;
20080;SDS011;10200;49.232;9.222;2022-12-11T11:23:17;30.87;;;15.20;;
20080;SDS011;10200;49.232;9.222;2022-12-11T11:25:50;23.33;;;11.90;;
20080;SDS011;10200;49.232;9.222;2022-12-11T11:28:24;28.80;;;14.10;;
20080;SDS011;10200;49.232;9.222;2022-12-11T11:30:55;29.13;;;14.97;;
20080;SDS011;10200;49.232;9.222;2022-12-11T11:33:36;26.90;;;13.97;;
20080;SDS011;10200;49.232;9.222;2022-12-11T11:36:36;28.33;;;14.27;;
20080;SDS011;10200;49.232;9.222;2022-12-11T11:39:12;30.27;;;14.67;;
20080;SDS011;10200;49.232;9.222;2022-12-11T11:42:07;24.47;;;14.17;;
20080;SDS011;10200;49.232;9.222;2022-12-11T11:45:04;27.67;;;14.20;;
20080;SDS011;10200;49.232;9.222;2022-12-11T11:48:05;31.27;;;15.97;;
20080;SDS011;10200;49.232;9.222;2022-12-11T11:50:35;28.30;;;14.93;;
20080;SDS011;10200;49.232;9.222;2022-12-11T11:53:06;28.00;;;14.73;;
20080;SDS011;10200;49.232;9.222;2022-12-11T11:58:30;29.83;;;14.83;;
20080;SDS011;10200;49.232;9.222;2022-12-11T12:01:33;29.40;;;14.80;;
20080;SDS011;10200;49.232;9.222;2022-12-11T12:03:59;29.93;;;15.47;;
20080;SDS011;10200;49.232;9.222;2022-12-11T12:11:48;26.63;;;13.83;;
20080;SDS011;10200;49.232;9.222;2022-12-11T12:14:24;29.70;;;15.57;;
20080;SDS011;10200;49.232;9.222;2022-12-11T12:17:16;26.33;;;13.67;;
20080;SDS011;10200;49.232;9.222;2022-12-11T12:25:27;25.23;;;13.47;;
20080;SDS011;10200;49.232;9.222;2022-12-11T12:30:37;21.13;;;12.43;;
20080;SDS011;10200;49.232;9.222;2022-12-11T12:36:10;24.33;;;13.27;;
20080;SDS011;10200;49.232;9.222;2022-12-11T12:38:52;25.93;;;14.93;;
20080;SDS011;10200;49.232;9.222;2022-12-11T12:41:48;23.80;;;12.57;;
20080;SDS011;10200;49.232;9.222;2022-12-11T12:44:26;26.60;;;14.17;;
20080;SDS011;10200;49.232;9.222;2022-12-11T12:47:02;26.53;;;13.60;;
20080;SDS011;10200;49.232;9.222;2022-12-11T12:52:14;29.63;;;14.60;;
20080;SDS011;10200;49.232;9.222;2022-12-11T12:54:44;32.10;;;14.37;;
20080;SDS011;10200;49.232;9.222;2022-12-11T12:57:32;26.50;;;13.77;;
20080;SDS011;10200;49.232;9.222;2022-12-11T12:59:58;30.43;;;14.77;;
20080;SDS011;10200;49.232;9.222;2022-12-11T13:02:24;33.23;;;16.00;;
20080;SDS011;10200;49.232;9.222;2022-12-11T13:04:57;29.50;;;15.93;;
20080;SDS011;10200;49.232;9.222;2022-12-11T13:07:30;29.70;;;16.23;;
20080;SDS011;10200;49.232;9.222;2022-12-11T13:10:20;31.87;;;14.87;;
20080;SDS011;10200;49.232;9.222;2022-12-11T13:12:54;25.97;;;13.93;;
20080;SDS011;10200;49.232;9.222;2022-12-11T13:20:57;32.00;;;15.90;;
20080;SDS011;10200;49.232;9.222;2022-12-11T13:23:32;30.00;;;16.23;;
20080;SDS011;10200;49.232;9.222;2022-12-11T13:26:00;30.60;;;17.53;;
20080;SDS011;10200;49.232;9.222;2022-12-11T13:28:45;30.70;;;15.67;;
20080;SDS011;10200;49.232;9.222;2022-12-11T13:33:41;31.37;;;16.00;;
20080;SDS011;10200;49.232;9.222;2022-12-11T13:38:44;30.43;;;16.20;;
20080;SDS011;10200;49.232;9.222;2022-12-11T13:41:13;28.37;;;14.90;;
20080;SDS011;10200;49.232;9.222;2022-12-11T13:43:39;32.83;;;14.93;;
20080;SDS011;10200;49.232;9.222;2022-12-11T13:46:09;27.20;;;15.03;;
20080;SDS011;10200;49.232;9.222;2022-12-11T13:48:42;27.40;;;14.23;;
20080;SDS011;10200;49.232;9.222;2022-12-11T13:51:12;30.27;;;15.97;;
20080;SDS011;10200;49.232;9.222;2022-12-11T13:53:41;33.87;;;16.57;;
20080;SDS011;10200;49.232;9.222;2022-12-11T13:56:12;28.10;;;15.77;;
20080;SDS011;10200;49.232;9.222;2022-12-11T13:58:42;29.10;;;16.03;;
20080;SDS011;10200;49.232;9.222;2022-12-11T14:01:21;33.03;;;17.03;;
20080;SDS011;10200;49.232;9.222;2022-12-11T14:03:57;32.10;;;16.10;;
20080;SDS011;10200;49.232;9.222;2022-12-11T14:06:26;32.63;;;16.43;;
20080;SDS011;10200;49.232;9.222;2022-12-11T14:08:55;34.53;;;17.07;;
20080;SDS011;10200;49.232;9.222;2022-12-11T14:11:27;30.53;;;15.53;;
20080;SDS011;10200;49.232;9.222;2022-12-11T14:14:06;28.70;;;15.33;;
20080;SDS011;10200;49.232;9.222;2022-12-11T14:16:40;27.70;;;14.97;;
20080;SDS011;10200;49.232;9.222;2022-12-11T14:19:06;29.40;;;14.90;;
20080;SDS011;10200;49.232;9.222;2022-12-11T14:21:34;25.53;;;14.27;;
20080;SDS011;10200;49.232;9.222;2022-12-11T14:24:01;25.37;;;14.63;;
20080;SDS011;10200;49.232;9.222;2022-12-11T14:26:31;28.60;;;14.60;;
20080;SDS011;10200;49.232;9.222;2022-12-11T14:28:58;28.40;;;13.93;;
20080;SDS011;10200;49.232;9.222;2022-12-11T14:31:32;26.30;;;14.07;;
20080;SDS011;10200;49.232;9.222;2022-12-11T14:34:10;25.93;;;13.30;;
20080;SDS011;10200;49.232;9.222;2022-12-11T14:36:39;22.77;;;13.73;;
20080;SDS011;10200;49.232;9.222;2022-12-11T14:39:09;25.33;;;12.77;;
20080;SDS011;10200;49.232;9.222;2022-12-11T14:44:13;26.83;;;15.03;;
20080;SDS011;10200;49.232;9.222;2022-12-11T14:46:45;27.83;;;14.50;;
20080;SDS011;10200;49.232;9.222;2022-12-11T14:49:21;23.63;;;13.40;;
20080;SDS011;10200;49.232;9.222;2022-12-11T14:51:52;20.83;;;11.70;;
20080;SDS011;10200;49.232;9.222;2022-12-11T14:54:32;24.07;;;10.90;;
20080;SDS011;10200;49.232;9.222;2022-12-11T14:57:06;23.47;;;11.80;;
20080;SDS011;10200;49.232;9.222;2022-12-11T14:59:38;23.77;;;13.37;;
20080;SDS011;10200;49.232;9.222;2022-12-11T15:05:14;18.23;;;10.63;;
20080;SDS011;10200;49.232;9.222;2022-12-11T15:07:42;25.03;;;10.73;;
20080;SDS011;10200;49.232;9.222;2022-12-11T15:10:35;19.10;;;10.93;;
20080;SDS011;10200;49.232;9.222;2022-12-11T15:13:05;21.40;;;11.73;;
20080;SDS011;10200;49.232;9.222;2022-12-11T15:15:37;24.03;;;12.33;;
20080;SDS011;10200;49.232;9.222;2022-12-11T15:18:46;41.40;;;17.30;;
20080;SDS011;10200;49.232;9.222;2022-12-11T15:21:05;34.47;;;16.03;;
20080;SDS011;10200;49.232;9.222;2022-12-11T15:23:48;36.90;;;18.07;;
20080;SDS011;10200;49.232;9.222;2022-12-11T15:26:15;27.47;;;12.90;;
20080;SDS011;10200;49.232;9.222;2022-12-11T15:28:41;26.37;;;13.43;;
20080;SDS011;10200;49.232;9.222;2022-12-11T15:31:19;25.57;;;13.43;;
20080;SDS011;10200;49.232;9.222;2022-12-11T15:33:46;31.73;;;14.67;;
20080;SDS011;10200;49.232;9.222;2022-12-11T15:38:54;25.43;;;12.23;;
20080;SDS011;10200;49.232;9.222;2022-12-11T15:41:20;22.60;;;12.07;;
20080;SDS011;10200;49.232;9.222;2022-12-11T15:43:48;19.90;;;11.50;;
20080;SDS011;10200;49.232;9.222;2022-12-11T15:46:18;23.67;;;12.03;;
20080;SDS011;10200;49.232;9.222;2022-12-11T15:48:44;23.77;;;12.67;;
20080;SDS011;10200;49.232;9.222;2022-12-11T15:51:09;22.33;;;12.07;;
20080;SDS011;10200;49.232;9.222;2022-12-11T15:53:35;20.83;;;11.53;;
20080;SDS011;10200;49.232;9.222;2022-12-11T15:56:00;23.50;;;11.83;;
20080;SDS011;10200;49.232;9.222;2022-12-11T15:58:26;23.90;;;12.53;;
20080;SDS011;10200;49.232;9.222;2022-12-11T16:00:53;21.93;;;12.77;;
20080;SDS011;10200;49.232;9.222;2022-12-11T16:03:19;23.33;;;13.03;;
20080;SDS011;10200;49.232;9.222;2022-12-11T16:05:46;22.77;;;12.40;;
20080;SDS011;10200;49.232;9.222;2022-12-11T16:08:15;27.37;;;15.53;;
20080;SDS011;10200;49.232;9.222;2022-12-11T16:10:43;28.73;;;14.37;;
20080;SDS011;10200;49.232;9.222;2022-12-11T16:13:10;25.70;;;13.80;;